Time;durP1;ratioP1;P1;durP2;ratioP2;P2;SDS_P1;SDS_P2;PMS_P1;PMS_P2;Temp;Humidity;BMP_temperature;BMP_pressure;BME280_temperature;BME280_humidity;BME280_pressure;Samples;Min_cycle;Max_cycle;Signal;HPM_P1;HPM_P2
2022/11/07 00:02:54;;;;;;;15.00;8.30;;;21.00;62.80;;;;;;215276;1283;24034;-61
2022/11/07 00:07:58;;;;;;;16.40;8.80;;;21.00;63.00;;;;;;215285;1276;26541;-62
2022/11/07 00:13:02;;;;;;;17.10;8.30;;;20.90;63.00;;;;;;215252;1289;22475;-61
2022/11/07 00:18:05;;;;;;;15.80;8.10;;;20.90;62.90;;;;;;215277;1283;25367;-62
2022/11/07 00:23:09;;;;;;;13.50;7.90;;;20.90;63.00;;;;;;215210;1283;25975;-62
2022/11/07 00:28:13;;;;;;;13.40;8.10;;;20.90;63.00;;;;;;215136;1300;23840;-63
2022/11/07 00:33:17;;;;;;;13.40;7.40;;;20.80;63.10;;;;;;215011;1301;23851;-63
2022/11/07 00:38:21;;;;;;;12.90;8.20;;;20.80;63.20;;;;;;215250;1283;22585;-61
2022/11/07 00:43:25;;;;;;;12.40;7.80;;;20.80;63.30;;;;;;215290;1291;26457;-61
2022/11/07 00:48:30;;;;;;;10.20;7.10;;;20.70;63.40;;;;;;215345;1284;25502;-63
2022/11/07 00:53:37;;;;;;;14.60;8.00;;;20.70;63.60;;;;;;215338;1280;22596;-62
2022/11/07 00:58:44;;;;;;;12.90;7.20;;;20.70;63.60;;;;;;215213;1281;25264;-62
2022/11/07 01:09:14;;;;;;;11.70;7.20;;;21.10;62.50;;;;;;215346;1281;22471;-62
2022/11/07 01:14:21;;;;;;;11.60;7.30;;;21.40;61.70;;;;;;215687;1281;25260;-61
2022/11/07 01:19:24;;;;;;;14.40;7.90;;;21.60;61.20;;;;;;215085;1276;22703;-62
2022/11/07 01:24:28;;;;;;;13.10;7.30;;;21.70;61.50;;;;;;215990;1277;23882;-61
2022/11/07 01:29:31;;;;;;;10.00;6.70;;;21.80;60.30;;;;;;215917;1276;23976;-61
2022/11/07 01:34:35;;;;;;;10.60;6.90;;;21.90;60.10;;;;;;219729;1276;25328;-63
2022/11/07 01:39:39;;;;;;;10.20;6.70;;;21.90;60.00;;;;;;215142;1283;25856;-62
2022/11/07 01:44:56;;;;;;;10.80;6.40;;;22.00;60.00;;;;;;217703;1283;25537;-62
2022/11/07 01:50:00;;;;;;;10.00;6.60;;;22.00;59.90;;;;;;215092;1283;22456;-62
2022/11/07 01:55:22;;;;;;;10.10;6.60;;;22.00;59.70;;;;;;215336;1275;24697;-63
2022/11/07 02:00:28;;;;;;;11.20;7.30;;;22.10;59.80;;;;;;215199;1276;26579;-63
2022/11/07 02:05:36;;;;;;;10.40;6.00;;;22.10;59.80;;;;;;215156;1273;22450;-62
2022/11/07 02:10:41;;;;;;;9.50;6.40;;;22.10;60.30;;;;;;215914;1275;25300;-62
2022/11/07 02:15:44;;;;;;;10.90;6.70;;;22.00;59.80;;;;;;214992;1282;22485;-62
2022/11/07 02:20:50;;;;;;;11.50;6.60;;;22.00;60.00;;;;;;215164;1275;24280;-62
2022/11/07 02:25:54;;;;;;;10.80;7.00;;;21.90;60.00;;;;;;215543;1289;27628;-61
2022/11/07 02:30:57;;;;;;;9.80;6.00;;;21.90;60.20;;;;;;215524;1276;23873;-63
2022/11/07 02:36:01;;;;;;;11.60;7.10;;;21.90;60.50;;;;;;215422;1276;24308;-62
2022/11/07 02:41:17;;;;;;;9.90;6.30;;;21.80;60.30;;;;;;215276;1291;26465;-62
2022/11/07 02:46:22;;;;;;;9.10;6.50;;;21.90;60.40;;;;;;215510;1275;22461;-61
2022/11/07 02:51:26;;;;;;;9.30;6.40;;;21.90;60.80;;;;;;214780;1282;24256;-61
2022/11/07 02:56:33;;;;;;;9.40;6.50;;;21.90;60.30;;;;;;215432;1275;25391;-62
2022/11/07 03:01:36;;;;;;;9.70;6.10;;;22.00;60.30;;;;;;215460;1282;25822;-61
2022/11/07 03:06:40;;;;;;;11.10;6.70;;;22.10;60.10;;;;;;215490;1276;22546;-61
2022/11/07 03:11:44;;;;;;;10.40;5.90;;;22.10;60.10;;;;;;215211;1277;23834;-62
2022/11/07 03:16:48;;;;;;;8.30;5.70;;;22.20;59.90;;;;;;215299;1283;25751;-63
2022/11/07 03:21:52;;;;;;;8.50;5.60;;;22.20;59.80;;;;;;215441;1275;26482;-62
2022/11/07 03:26:55;;;;;;;9.10;6.70;;;22.30;59.90;;;;;;215502;1275;25290;-62
2022/11/07 03:31:59;;;;;;;7.80;5.40;;;22.30;59.80;;;;;;215387;1283;24281;-62
2022/11/07 03:37:04;;;;;;;8.60;5.80;;;22.20;60.00;;;;;;215538;1275;24371;-64
2022/11/07 03:42:07;;;;;;;8.40;5.80;;;22.20;60.00;;;;;;215598;1281;22472;-62
2022/11/07 03:47:11;;;;;;;8.00;5.50;;;22.20;60.40;;;;;;215523;1276;26467;-62
2022/11/07 03:52:15;;;;;;;8.30;5.20;;;22.20;60.10;;;;;;215493;1299;23851;-62
2022/11/07 03:57:19;;;;;;;8.50;5.80;;;22.10;60.60;;;;;;215424;1281;25550;-63
2022/11/07 04:02:23;;;;;;;6.90;5.00;;;22.10;60.10;;;;;;215405;1283;25368;-61
2022/11/07 04:07:27;;;;;;;7.80;5.50;;;22.00;60.30;;;;;;215538;1276;22660;-62
2022/11/07 04:17:53;;;;;;;8.50;5.60;;;22.10;60.20;;;;;;215244;1272;23876;-62
2022/11/07 04:22:57;;;;;;;8.10;5.70;;;22.20;60.10;;;;;;215495;1276;25290;-62
2022/11/07 04:28:01;;;;;;;9.80;6.10;;;22.30;60.10;;;;;;215499;1275;25369;-62
2022/11/07 04:33:04;;;;;;;8.30;6.10;;;22.30;59.90;;;;;;215395;1269;22455;-63
2022/11/07 04:38:08;;;;;;;7.70;5.50;;;22.40;59.90;;;;;;215413;1276;25257;-61
2022/11/07 04:43:12;;;;;;;8.70;5.80;;;22.40;59.60;;;;;;215391;1275;25427;-61
2022/11/07 04:48:17;;;;;;;6.90;4.80;;;22.40;59.70;;;;;;216609;1272;24304;-63
2022/11/07 04:53:20;;;;;;;7.90;5.20;;;22.40;59.90;;;;;;215490;1268;22470;-61
2022/11/07 04:58:25;;;;;;;6.80;5.30;;;22.30;59.90;;;;;;215194;1294;23882;-62
2022/11/07 05:03:29;;;;;;;6.70;5.10;;;22.20;60.10;;;;;;215348;1282;22532;-62
2022/11/07 05:08:33;;;;;;;7.80;5.50;;;22.00;60.70;;;;;;215354;1281;22463;-62
2022/11/07 05:13:37;;;;;;;7.00;4.90;;;21.90;60.70;;;;;;215482;1299;23864;-62
2022/11/07 05:18:40;;;;;;;7.60;5.10;;;21.80;61.00;;;;;;215543;1269;23873;-63
2022/11/07 05:23:44;;;;;;;7.10;4.90;;;21.80;61.30;;;;;;215483;1293;26486;-62
2022/11/07 05:28:48;;;;;;;7.00;5.10;;;21.70;61.40;;;;;;215489;1276;25398;-63
2022/11/07 05:33:52;;;;;;;6.70;5.20;;;21.70;61.50;;;;;;215291;1276;25986;-63
2022/11/07 05:38:59;;;;;;;8.70;5.30;;;21.70;61.60;;;;;;215543;1285;24468;-61
2022/11/07 05:44:08;;;;;;;7.00;5.20;;;21.60;61.70;;;;;;215473;1276;25369;-61
2022/11/07 05:49:20;;;;;;;7.20;5.80;;;21.60;61.90;;;;;;215215;1276;25395;-62
2022/11/07 05:54:26;;;;;;;7.60;5.30;;;21.50;62.50;;;;;;215484;1292;25431;-63
2022/11/07 05:59:30;;;;;;;9.50;5.30;;;21.50;62.00;;;;;;215449;1276;25454;-61
2022/11/07 06:04:34;;;;;;;7.90;5.30;;;21.50;62.20;;;;;;215212;1278;25340;-64
2022/11/07 06:09:38;;;;;;;7.00;4.70;;;21.40;62.30;;;;;;215279;1276;327792;-62
2022/11/07 06:14:42;;;;;;;6.90;5.00;;;21.40;62.50;;;;;;215473;1293;25388;-63
2022/11/07 06:19:48;;;;;;;6.90;5.00;;;21.30;62.60;;;;;;215444;1291;24041;-62
2022/11/07 06:24:56;;;;;;;7.10;5.10;;;21.30;62.70;;;;;;215422;1275;24205;-60
2022/11/07 06:30:03;;;;;;;6.20;4.60;;;21.30;62.90;;;;;;215507;1294;26194;-61
2022/11/07 06:35:07;;;;;;;7.80;5.40;;;21.20;62.80;;;;;;215483;1276;22459;-62
2022/11/07 06:40:12;;;;;;;6.90;4.80;;;21.20;63.10;;;;;;215213;1275;25257;-60
2022/11/07 06:45:16;;;;;;;7.60;5.20;;;21.10;63.00;;;;;;215561;1277;24246;-60
2022/11/07 06:50:20;;;;;;;7.80;5.20;;;21.20;63.10;;;;;;215530;1275;24157;-61
2022/11/07 06:55:24;;;;;;;6.80;5.10;;;21.10;63.20;;;;;;215573;1278;25289;-62
2022/11/07 07:00:28;;;;;;;8.20;5.00;;;21.10;63.30;;;;;;215153;1285;25185;-62
2022/11/07 07:05:33;;;;;;;8.30;5.20;;;21.10;63.50;;;;;;215478;1276;25353;-62
2022/11/07 07:10:42;;;;;;;7.60;5.40;;;21.00;63.40;;;;;;215689;1294;22525;-62
2022/11/07 07:15:55;;;;;;;8.10;5.90;;;21.00;63.50;;;;;;215386;1276;22598;-61
2022/11/07 07:21:11;;;;;;;8.60;4.80;;;21.00;63.90;;;;;;215340;1276;22675;-62
2022/11/07 07:26:15;;;;;;;8.30;5.30;;;21.00;63.70;;;;;;215302;1275;23715;-63
2022/11/07 07:31:23;;;;;;;6.50;4.60;;;21.00;63.70;;;;;;215571;1276;25289;-62
2022/11/07 07:36:28;;;;;;;7.70;4.70;;;21.00;63.80;;;;;;215510;1276;25282;-60
2022/11/07 07:41:33;;;;;;;7.20;5.10;;;20.90;63.80;;;;;;215533;1276;25315;-62
2022/11/07 07:46:42;;;;;;;8.50;5.20;;;21.00;63.60;;;;;;215457;1269;22473;-63
2022/11/07 07:51:46;;;;;;;9.30;5.00;;;20.90;63.40;;;;;;215686;1296;23880;-62
2022/11/07 07:56:49;;;;;;;8.20;5.30;;;20.90;63.30;;;;;;215521;1300;25314;-63
2022/11/07 08:01:53;;;;;;;11.70;5.80;;;20.90;64.10;;;;;;215554;1275;25254;-62
2022/11/07 08:07:00;;;;;;;15.50;6.30;;;20.90;65.90;;;;;;215552;1276;22585;-63
2022/11/07 08:12:07;;;;;;;11.50;6.80;;;20.90;65.70;;;;;;215640;1275;24313;-63
2022/11/07 08:17:10;;;;;;;13.20;6.50;;;20.90;65.80;;;;;;215518;1290;25257;-62
2022/11/07 08:22:20;;;;;;;10.80;6.50;;;20.90;66.60;;;;;;215696;1268;22985;-62
2022/11/07 08:27:24;;;;;;;41.50;28.10;;;21.00;66.50;;;;;;215441;1275;23834;-62
2022/11/07 08:32:29;;;;;;;33.70;24.70;;;20.90;66.10;;;;;;215474;1272;25287;-59
2022/11/07 08:37:32;;;;;;;27.40;19.60;;;20.90;66.00;;;;;;215511;1276;25205;-62
2022/11/07 08:42:36;;;;;;;29.70;20.30;;;20.90;65.20;;;;;;215622;1300;25293;-61
2022/11/07 08:47:40;;;;;;;26.80;16.30;;;20.90;65.30;;;;;;215473;1283;23833;-60
2022/11/07 08:52:44;;;;;;;30.00;18.00;;;20.90;64.70;;;;;;215497;1268;22458;-58
2022/11/07 08:57:47;;;;;;;25.80;16.50;;;20.80;65.00;;;;;;215560;1276;25251;-59
2022/11/07 09:02:51;;;;;;;23.10;16.00;;;20.80;65.60;;;;;;215549;1283;25375;-60
2022/11/07 09:08:15;;;;;;;24.10;16.20;;;20.80;65.60;;;;;;215516;1276;24022;-55
2022/11/07 09:13:21;;;;;;;24.40;15.00;;;20.70;65.50;;;;;;215439;1269;26546;-54
2022/11/07 09:18:26;;;;;;;22.40;14.40;;;20.80;64.80;;;;;;215543;1297;25410;-56
2022/11/07 09:23:30;;;;;;;19.30;14.90;;;20.80;65.80;;;;;;215333;1272;22468;-58
2022/11/07 09:28:35;;;;;;;22.30;14.30;;;20.70;65.20;;;;;;215594;1268;24419;-61
2022/11/07 09:33:40;;;;;;;18.90;14.50;;;20.70;65.20;;;;;;215571;1275;22696;-59
2022/11/07 09:38:43;;;;;;;18.60;13.40;;;20.70;65.10;;;;;;215533;1276;23715;-54
2022/11/07 09:43:56;;;;;;;17.50;12.00;;;20.70;65.00;;;;;;215590;1276;26462;-54
2022/11/07 09:49:19;;;;;;;16.20;11.00;;;20.70;65.00;;;;;;215620;1275;26575;-54
2022/11/07 09:54:27;;;;;;;16.40;10.90;;;20.80;64.80;;;;;;215547;1275;24278;-55
2022/11/07 09:59:43;;;;;;;16.20;10.90;;;21.00;64.30;;;;;;215300;1284;22483;-56
2022/11/07 10:04:54;;;;;;;14.90;10.50;;;21.10;64.30;;;;;;215553;1269;22468;-56
2022/11/07 10:10:17;;;;;;;15.20;9.70;;;21.20;63.20;;;;;;215489;1282;25647;-54
2022/11/07 10:15:29;;;;;;;12.40;9.50;;;21.40;62.80;;;;;;215471;1277;25298;-58
2022/11/07 10:20:48;;;;;;;12.40;8.90;;;21.40;62.10;;;;;;221481;1276;22588;-59
2022/11/07 10:25:59;;;;;;;16.30;9.20;;;21.60;61.70;;;;;;215305;1292;26479;-58
2022/11/07 10:31:06;;;;;;;11.80;8.50;;;21.70;61.50;;;;;;215426;1274;24241;-55
2022/11/07 10:36:23;;;;;;;13.90;9.50;;;21.70;61.00;;;;;;215520;1282;22830;-51
2022/11/07 10:41:30;;;;;;;15.30;8.30;;;21.70;61.10;;;;;;215533;1275;22726;-52
2022/11/07 10:46:39;;;;;;;14.30;8.20;;;21.70;61.00;;;;;;215556;1276;23981;-52
2022/11/07 10:51:43;;;;;;;9.10;7.30;;;21.70;61.00;;;;;;215528;1282;22666;-54
2022/11/07 10:56:49;;;;;;;11.30;7.60;;;21.70;61.00;;;;;;215556;1275;25335;-56
2022/11/07 11:01:55;;;;;;;15.60;7.60;;;21.70;61.00;;;;;;215601;1276;25285;-56
2022/11/07 11:07:05;;;;;;;10.90;7.80;;;21.70;61.00;;;;;;215520;1282;22480;-58
2022/11/07 11:12:19;;;;;;;10.20;7.50;;;21.70;61.30;;;;;;215241;1286;22640;-57
2022/11/07 11:17:25;;;;;;;9.50;6.50;;;21.70;60.80;;;;;;215325;1276;22593;-56
2022/11/07 11:22:29;;;;;;;9.50;6.40;;;21.60;60.70;;;;;;215496;1283;26656;-56
2022/11/07 11:27:34;;;;;;;7.70;5.70;;;21.70;60.60;;;;;;215547;1283;22473;-55
2022/11/07 11:32:47;;;;;;;7.40;5.70;;;21.70;60.70;;;;;;215410;1275;22458;-56
2022/11/07 11:38:01;;;;;;;7.00;5.10;;;21.80;61.10;;;;;;215384;1268;25357;-56
2022/11/07 11:43:18;;;;;;;8.40;5.60;;;21.80;60.50;;;;;;215499;1276;22463;-55
2022/11/07 11:48:37;;;;;;;7.70;5.00;;;21.90;60.70;;;;;;215278;1276;24262;-57
2022/11/07 11:53:41;;;;;;;8.30;5.00;;;21.90;60.00;;;;;;215391;1276;25558;-59
2022/11/07 11:59:17;;;;;;;9.40;5.00;;;22.00;60.00;;;;;;215531;1269;22465;-55
2022/11/07 12:04:43;;;;;;;6.60;4.90;;;22.00;60.10;;;;;;215002;1276;22470;-56
2022/11/07 12:09:56;;;;;;;6.40;4.50;;;22.00;60.40;;;;;;215502;1294;24365;-57
2022/11/07 12:15:29;;;;;;;8.80;4.60;;;22.10;60.10;;;;;;215424;1275;24021;-57
2022/11/07 12:20:44;;;;;;;6.80;4.40;;;22.10;60.10;;;;;;215384;1268;24355;-55
2022/11/07 12:26:01;;;;;;;6.40;4.30;;;22.20;60.00;;;;;;215401;1276;25322;-55
2022/11/07 12:31:20;;;;;;;5.00;3.90;;;22.30;59.80;;;;;;215530;1280;22534;-56
2022/11/07 12:36:46;;;;;;;6.20;4.50;;;22.30;60.10;;;;;;215570;1299;25312;-56
2022/11/07 12:41:57;;;;;;;7.50;4.10;;;22.30;59.30;;;;;;215373;1276;22459;-55
2022/11/07 12:47:12;;;;;;;7.00;4.70;;;22.30;59.40;;;;;;215242;1276;24338;-53
2022/11/07 12:52:23;;;;;;;7.30;4.60;;;22.40;59.10;;;;;;215391;1283;22466;-54
2022/11/07 12:57:37;;;;;;;6.50;4.30;;;22.40;59.40;;;;;;215276;1279;24330;-54
2022/11/07 13:03:17;;;;;;;7.00;5.20;;;22.40;59.00;;;;;;215527;1276;22530;-55
2022/11/07 13:08:37;;;;;;;;;;;22.40;59.40;;;;;;215425;1297;25288;-54
2022/11/07 13:14:18;;;;;;;5.50;4.00;;;22.40;58.90;;;;;;215407;1276;24278;-56
2022/11/07 13:19:35;;;;;;;5.50;3.80;;;22.30;58.90;;;;;;215453;1283;25376;-56
2022/11/07 13:25:08;;;;;;;6.50;4.20;;;22.30;58.90;;;;;;215186;1276;25565;-56
2022/11/07 13:30:52;;;;;;;5.40;3.70;;;22.30;59.00;;;;;;215473;1276;22624;-59
2022/11/07 13:36:25;;;;;;;9.40;4.30;;;22.20;59.20;;;;;;215361;1276;25339;-54
2022/11/07 13:41:30;;;;;;;4.80;3.40;;;22.20;59.40;;;;;;215355;1281;22655;-53
2022/11/07 13:46:41;;;;;;;4.40;3.30;;;22.10;58.60;;;;;;215708;1275;25309;-55
2022/11/07 13:51:50;;;;;;;5.40;3.80;;;22.10;59.20;;;;;;215285;1283;23480;-55
2022/11/07 13:57:18;;;;;;;5.00;3.80;;;22.00;59.20;;;;;;215210;1283;23235;-55
2022/11/07 14:02:28;;;;;;;5.00;3.80;;;22.10;59.20;;;;;;215126;1269;22663;-55
2022/11/07 14:07:36;;;;;;;4.70;3.50;;;22.10;59.50;;;;;;215228;1277;24224;-58
2022/11/07 14:12:39;;;;;;;8.40;4.20;;;22.00;59.30;;;;;;221440;1288;22577;-55
2022/11/07 14:17:44;;;;;;;5.80;3.80;;;22.10;59.70;;;;;;218490;1282;26596;-54
2022/11/07 14:22:51;;;;;;;5.10;3.70;;;22.00;59.00;;;;;;215355;1281;22516;-55
2022/11/07 14:27:59;;;;;;;5.70;3.70;;;22.00;58.50;;;;;;215619;1281;25520;-55
2022/11/07 14:33:04;;;;;;;5.00;4.10;;;22.00;58.90;;;;;;215564;1276;22489;-55
2022/11/07 14:38:13;;;;;;;5.30;3.90;;;21.90;59.30;;;;;;215537;1286;24229;-55
2022/11/07 14:43:23;;;;;;;5.10;3.90;;;21.90;58.70;;;;;;215593;1281;22510;-53
2022/11/07 14:48:28;;;;;;;4.80;3.70;;;21.80;58.80;;;;;;215494;1277;23881;-55
2022/11/07 14:53:47;;;;;;;5.20;3.80;;;21.80;58.90;;;;;;215502;1297;25298;-55
2022/11/07 14:58:55;;;;;;;4.30;3.40;;;21.70;58.80;;;;;;215425;1291;24278;-55
2022/11/07 15:04:25;;;;;;;5.00;3.80;;;21.70;59.60;;;;;;215473;1300;25319;-56
2022/11/07 15:09:34;;;;;;;5.80;3.90;;;21.70;59.10;;;;;;215412;1282;22482;-55
2022/11/07 15:14:39;;;;;;;7.00;3.70;;;21.60;58.80;;;;;;215508;1282;25503;-55
2022/11/07 15:19:54;;;;;;;4.50;3.80;;;21.60;58.80;;;;;;215567;1298;22467;-54
2022/11/07 15:25:01;;;;;;;5.00;3.60;;;21.60;58.70;;;;;;215547;1297;23934;-54
2022/11/07 15:30:32;;;;;;;5.70;3.50;;;21.50;58.80;;;;;;215539;1281;24304;-55
2022/11/07 15:35:40;;;;;;;4.60;3.40;;;21.50;58.80;;;;;;215359;1276;24247;-55
2022/11/07 15:40:50;;;;;;;5.60;3.50;;;21.50;58.70;;;;;;215487;1278;24250;-55
2022/11/07 15:45:55;;;;;;;4.30;3.10;;;21.50;58.80;;;;;;215481;1288;22459;-54
2022/11/07 15:51:02;;;;;;;5.20;3.50;;;21.40;59.10;;;;;;215575;1276;22461;-54
2022/11/07 15:56:07;;;;;;;4.10;3.00;;;21.40;59.20;;;;;;215478;1288;22491;-56
2022/11/07 16:01:11;;;;;;;5.30;3.50;;;21.40;58.70;;;;;;215420;1285;22670;-55
2022/11/07 16:06:27;;;;;;;5.10;3.50;;;21.30;58.80;;;;;;215464;1291;25217;-56
2022/11/07 16:11:31;;;;;;;4.90;3.40;;;21.30;58.80;;;;;;215472;1283;23856;-55
2022/11/07 16:16:36;;;;;;;4.90;3.60;;;21.30;58.70;;;;;;215491;1286;22480;-54
2022/11/07 16:21:41;;;;;;;5.70;3.70;;;21.30;58.70;;;;;;215568;1283;26881;-54
2022/11/07 16:26:47;;;;;;;6.30;3.60;;;21.30;58.70;;;;;;215559;1285;22540;-55
2022/11/07 16:31:52;;;;;;;4.70;3.70;;;21.20;58.70;;;;;;215461;1290;22491;-54
2022/11/07 16:36:59;;;;;;;5.20;3.60;;;21.20;58.80;;;;;;215529;1285;24320;-55
2022/11/07 16:42:16;;;;;;;4.90;3.30;;;21.20;58.80;;;;;;215450;1293;25540;-57
2022/11/07 16:47:22;;;;;;;4.80;3.50;;;21.20;58.90;;;;;;215456;1279;23193;-56
2022/11/07 16:52:32;;;;;;;5.10;3.60;;;21.10;58.90;;;;;;215446;1283;26549;-55
2022/11/07 16:57:35;;;;;;;5.10;3.40;;;21.10;59.00;;;;;;215408;1276;25304;-54
2022/11/07 17:02:39;;;;;;;6.00;3.10;;;21.10;58.90;;;;;;215427;1292;25343;-56
2022/11/07 17:07:44;;;;;;;4.70;3.60;;;21.10;58.90;;;;;;215463;1299;25439;-55
2022/11/07 17:12:50;;;;;;;5.60;3.70;;;21.00;59.00;;;;;;215523;1291;25284;-54
2022/11/07 17:17:54;;;;;;;5.90;3.30;;;21.00;59.00;;;;;;215544;1276;25308;-54
2022/11/07 17:23:06;;;;;;;6.30;3.30;;;21.00;58.90;;;;;;215495;1283;22482;-55
2022/11/07 17:28:10;;;;;;;4.50;3.40;;;21.00;59.00;;;;;;215476;1291;25285;-55
2022/11/07 17:33:13;;;;;;;6.10;3.70;;;20.90;58.80;;;;;;215508;1299;25393;-56
2022/11/07 17:38:18;;;;;;;5.40;3.60;;;20.90;58.80;;;;;;215445;1283;23851;-55
2022/11/07 17:43:23;;;;;;;4.90;3.20;;;20.90;58.80;;;;;;215129;1282;23843;-55
2022/11/07 17:48:30;;;;;;;4.90;3.20;;;20.90;58.90;;;;;;215479;1279;22474;-53
2022/11/07 17:53:34;;;;;;;4.50;3.10;;;21.00;58.80;;;;;;215483;1275;26499;-58
2022/11/07 17:58:37;;;;;;;6.20;3.10;;;21.10;58.40;;;;;;215503;1282;24686;-57
2022/11/07 18:03:44;;;;;;;4.80;3.30;;;21.20;58.00;;;;;;215420;1275;24209;-56
2022/11/07 18:08:54;;;;;;;5.50;3.00;;;21.30;58.00;;;;;;215285;1299;310995;-53
2022/11/07 18:13:59;;;;;;;5.30;3.40;;;21.40;57.30;;;;;;215320;1280;22588;-54
2022/11/07 18:19:04;;;;;;;5.00;3.30;;;21.50;57.50;;;;;;215219;1284;23878;-54
2022/11/07 18:24:12;;;;;;;6.00;3.20;;;21.50;57.00;;;;;;215223;1298;25481;-55
2022/11/07 18:29:22;;;;;;;6.70;3.60;;;21.60;56.80;;;;;;215356;1281;24273;-56
2022/11/07 18:34:29;;;;;;;5.80;3.90;;;21.60;56.60;;;;;;215425;1292;22473;-53
2022/11/07 18:39:35;;;;;;;6.40;4.20;;;21.60;56.60;;;;;;215466;1285;24237;-55
2022/11/07 18:44:38;;;;;;;7.50;4.40;;;21.60;56.40;;;;;;215442;1275;24281;-57
2022/11/07 18:49:43;;;;;;;7.00;4.10;;;21.60;56.40;;;;;;215550;1283;25376;-55
2022/11/07 18:54:50;;;;;;;6.20;4.10;;;21.60;56.40;;;;;;215195;1276;25294;-56
2022/11/07 18:59:57;;;;;;;6.00;3.90;;;21.60;56.30;;;;;;215457;1279;22497;-56
2022/11/07 19:05:04;;;;;;;6.50;4.10;;;21.60;56.20;;;;;;215234;1283;25303;-55
2022/11/07 19:16:06;;;;;;;7.00;4.20;;;21.50;56.20;;;;;;215486;1289;24390;-55
2022/11/07 19:21:19;;;;;;;6.60;4.10;;;21.60;56.20;;;;;;215448;1296;27626;-55
2022/11/07 19:26:23;;;;;;;5.30;3.50;;;21.50;56.10;;;;;;215321;1291;25338;-56
2022/11/07 19:31:30;;;;;;;6.30;4.20;;;21.60;56.10;;;;;;215496;1289;24274;-55
2022/11/07 19:36:43;;;;;;;7.10;4.40;;;21.60;56.10;;;;;;215466;1299;23697;-54
2022/11/07 19:41:52;;;;;;;6.60;4.30;;;21.60;56.00;;;;;;215472;1289;26600;-57
2022/11/07 19:47:01;;;;;;;7.80;4.30;;;21.60;56.00;;;;;;215328;1283;25300;-55
2022/11/07 19:52:29;;;;;;;8.80;4.30;;;21.70;55.70;;;;;;215563;1283;22453;-55
2022/11/07 19:57:35;;;;;;;6.50;4.60;;;21.70;55.80;;;;;;215474;1285;22475;-57
2022/11/07 20:02:45;;;;;;;8.30;4.80;;;21.90;55.60;;;;;;215464;1282;24037;-56
2022/11/07 20:07:54;;;;;;;7.20;4.60;;;21.90;55.50;;;;;;215498;1276;24316;-56
2022/11/07 20:13:13;;;;;;;7.70;4.80;;;21.90;55.50;;;;;;215385;1276;25303;-57
2022/11/07 20:18:23;;;;;;;8.30;5.10;;;21.80;56.00;;;;;;215419;1271;24323;-55
2022/11/07 20:23:31;;;;;;;10.30;5.50;;;21.70;56.30;;;;;;215318;1287;22458;-57
2022/11/07 20:28:38;;;;;;;8.90;5.60;;;21.60;57.20;;;;;;215494;1296;22585;-56
2022/11/07 20:33:42;;;;;;;8.40;5.60;;;21.70;57.40;;;;;;215416;1275;23289;-56
2022/11/07 20:38:55;;;;;;;10.70;5.50;;;21.70;57.50;;;;;;215284;1285;22474;-56
2022/11/07 20:44:04;;;;;;;11.80;5.60;;;21.70;57.50;;;;;;215490;1275;24246;-57
2022/11/07 20:49:16;;;;;;;7.00;4.80;;;21.70;57.60;;;;;;215473;1276;25287;-56
2022/11/07 20:54:21;;;;;;;8.60;5.20;;;21.60;57.60;;;;;;215490;1289;25381;-56
2022/11/07 20:59:25;;;;;;;14.00;5.90;;;21.60;57.80;;;;;;215496;1282;22459;-57
2022/11/07 21:04:30;;;;;;;9.10;5.50;;;21.60;57.70;;;;;;215171;1287;22450;-57
2022/11/07 21:09:54;;;;;;;8.90;5.50;;;21.60;58.20;;;;;;215377;1293;25610;-56
2022/11/07 21:14:58;;;;;;;8.50;5.20;;;21.60;57.70;;;;;;215443;1282;22582;-57
2022/11/07 21:20:06;;;;;;;8.70;5.10;;;21.60;57.50;;;;;;215488;1276;24231;-57
2022/11/07 21:25:09;;;;;;;10.10;5.40;;;21.50;57.70;;;;;;215520;1276;22478;-57
2022/11/07 21:30:15;;;;;;;9.50;5.60;;;21.50;57.90;;;;;;215231;1291;23908;-56
2022/11/07 21:35:25;;;;;;;10.80;5.40;;;21.50;58.00;;;;;;214870;1280;23910;-56
2022/11/07 21:40:37;;;;;;;16.40;7.00;;;21.40;58.10;;;;;;214917;1280;22497;-57
2022/11/07 21:45:46;;;;;;;14.40;6.30;;;21.40;61.80;;;;;;214949;1280;24160;-57
2022/11/07 21:50:53;;;;;;;12.50;6.50;;;21.40;61.00;;;;;;215103;1300;26694;-57
2022/11/07 21:56:00;;;;;;;15.20;6.60;;;21.40;60.60;;;;;;214822;1275;22464;-57
2022/11/07 22:01:05;;;;;;;12.90;6.50;;;21.30;60.70;;;;;;215070;1300;22509;-57
2022/11/07 22:06:09;;;;;;;14.40;6.20;;;21.30;61.30;;;;;;214879;1277;25551;-56
2022/11/07 22:11:15;;;;;;;8.50;6.10;;;21.30;61.30;;;;;;214927;1282;22475;-57
2022/11/07 22:16:21;;;;;;;9.50;5.80;;;21.30;61.50;;;;;;214933;1280;22662;-57
2022/11/07 22:21:25;;;;;;;11.10;6.00;;;21.30;62.00;;;;;;214984;1280;22484;-57
2022/11/07 22:26:30;;;;;;;10.40;6.10;;;21.20;62.50;;;;;;214950;1280;23565;-57
2022/11/07 22:31:38;;;;;;;12.60;6.00;;;21.20;62.30;;;;;;214832;1282;22708;-57
2022/11/07 22:36:45;;;;;;;12.20;5.90;;;21.20;62.20;;;;;;214874;1286;25290;-56
2022/11/07 22:42:00;;;;;;;22.00;6.30;;;21.10;63.40;;;;;;214836;1282;24278;-54
2022/11/07 22:47:06;;;;;;;14.30;6.60;;;21.20;65.90;;;;;;214738;1280;26545;-57
2022/11/07 22:52:10;;;;;;;11.00;5.90;;;21.20;65.50;;;;;;214883;1280;25289;-57
2022/11/07 22:57:14;;;;;;;9.90;6.30;;;21.30;65.10;;;;;;214808;1279;25334;-57
2022/11/07 23:02:25;;;;;;;12.80;6.10;;;21.20;65.10;;;;;;214849;1288;22476;-57
2022/11/07 23:07:35;;;;;;;10.50;5.70;;;21.20;65.30;;;;;;214877;1280;25509;-57
2022/11/07 23:12:41;;;;;;;13.10;6.30;;;21.10;65.30;;;;;;214956;1284;25339;-57
2022/11/07 23:17:47;;;;;;;11.70;6.30;;;21.10;65.60;;;;;;214894;1278;25397;-59
2022/11/07 23:22:53;;;;;;;9.50;5.70;;;21.00;65.40;;;;;;214699;1300;24066;-58
2022/11/07 23:27:57;;;;;;;13.00;6.10;;;21.10;65.20;;;;;;214943;1300;23847;-58
2022/11/07 23:33:01;;;;;;;11.10;6.10;;;21.10;65.20;;;;;;214952;1278;26551;-57
2022/11/07 23:38:06;;;;;;;10.60;6.30;;;21.10;65.00;;;;;;214822;1296;25487;-57
2022/11/07 23:43:09;;;;;;;12.90;7.10;;;21.00;65.00;;;;;;215029;1279;24279;-56
